Time;durP1;ratioP1;P1;durP2;ratioP2;P2;SDS_P1;SDS_P2;PMS_P1;PMS_P2;Temp;Humidity;BMP_temperature;BMP_pressure;BME280_temperature;BME280_humidity;BME280_pressure;Samples;Min_cycle;Max_cycle;Signal;HPM_P1;HPM_P2
2024/02/05 00:01:19;;;;;;;8.73;6.20;;;;;;;9.76;100.00;101915.13;10552755;27;20052;-75
2024/02/05 00:06:41;;;;;;;7.03;5.00;;;;;;;9.42;100.00;101923.50;10545811;27;20048;-76
2024/02/05 00:12:04;;;;;;;7.20;5.35;;;;;;;9.46;100.00;101914.84;10530294;27;20103;-75
2024/02/05 00:17:28;;;;;;;8.88;6.15;;;;;;;9.48;100.00;101921.97;10588492;27;20464;-76
2024/02/05 00:22:51;;;;;;;7.70;5.78;;;;;;;9.46;100.00;101923.66;10611685;27;20041;-75
2024/02/05 00:28:14;;;;;;;6.03;5.03;;;;;;;9.45;100.00;101927.13;10603259;27;20058;-75
2024/02/05 00:33:41;;;;;;;11.32;5.18;;;;;;;9.59;100.00;101918.00;10614519;27;20429;-75
2024/02/05 00:39:05;;;;;;;6.95;5.22;;;;;;;9.80;100.00;101924.94;10625864;27;20043;-76
2024/02/05 00:44:27;;;;;;;7.80;4.82;;;;;;;9.71;100.00;101928.16;10600447;27;20049;-75
2024/02/05 00:49:51;;;;;;;8.70;5.03;;;;;;;9.54;100.00;101919.59;10606789;27;20059;-75
2024/02/05 00:55:16;;;;;;;8.05;4.68;;;;;;;9.65;100.00;101916.47;10600613;27;20098;-75
2024/02/05 01:00:39;;;;;;;9.25;5.90;;;;;;;9.99;100.00;101908.94;10604751;27;20197;-74
2024/02/05 01:06:04;;;;;;;9.90;6.68;;;;;;;9.73;100.00;101909.72;10606996;27;20051;-75
2024/02/05 01:11:27;;;;;;;9.15;5.32;;;;;;;9.55;100.00;101909.94;10592411;27;20046;-76
2024/02/05 01:16:49;;;;;;;8.70;5.28;;;;;;;9.39;100.00;101911.06;10559271;28;20529;-75
2024/02/05 01:22:13;;;;;;;8.55;6.60;;;;;;;9.39;100.00;101907.53;10558272;28;20126;-76
2024/02/05 01:27:36;;;;;;;10.15;7.18;;;;;;;9.56;100.00;101907.38;10541958;28;21045;-75
2024/02/05 01:32:58;;;;;;;19.02;17.02;;;;;;;9.25;100.00;101907.03;10558237;28;20118;-75
2024/02/05 01:38:23;;;;;;;9.13;7.60;;;;;;;9.12;100.00;101904.75;10541148;28;20060;-75
2024/02/05 01:43:46;;;;;;;7.65;5.97;;;;;;;9.19;100.00;101899.75;10564029;28;20404;-76
2024/02/05 01:49:10;;;;;;;8.45;6.03;;;;;;;9.00;100.00;101899.88;10546504;28;20055;-75
2024/02/05 01:54:36;;;;;;;8.13;5.88;;;;;;;8.99;100.00;101903.34;10563205;28;20051;-75
2024/02/05 01:59:59;;;;;;;8.00;5.25;;;;;;;9.04;100.00;101895.63;10580306;27;20047;-75
2024/02/05 02:05:22;;;;;;;7.93;5.05;;;;;;;9.06;100.00;101886.94;10558135;28;20083;-76
2024/02/05 02:10:47;;;;;;;7.85;4.85;;;;;;;9.00;100.00;101893.69;10554745;28;20462;-77
2024/02/05 02:16:15;;;;;;;11.32;5.53;;;;;;;8.97;100.00;101896.22;10550097;28;20097;-75
2024/02/05 02:21:40;;;;;;;6.17;4.93;;;;;;;9.22;100.00;101888.44;10556719;28;20131;-76
2024/02/05 02:27:04;;;;;;;13.43;9.52;;;;;;;9.37;100.00;101881.16;10558010;28;20055;-75
2024/02/05 02:32:37;;;;;;;13.23;11.50;;;;;;;9.50;100.00;101891.31;10573429;28;20043;-76
2024/02/05 02:38:02;;;;;;;9.38;5.25;;;;;;;9.24;100.00;101894.69;10557591;28;20059;-75
2024/02/05 02:43:27;;;;;;;9.93;7.57;;;;;;;9.39;100.00;101890.00;10547978;28;20043;-76
2024/02/05 02:48:50;;;;;;;9.00;6.22;;;;;;;9.36;100.00;101889.00;10572852;28;20075;-75
2024/02/05 02:54:13;;;;;;;10.98;6.18;;;;;;;9.32;100.00;101893.22;10558904;28;20134;-75
2024/02/05 02:59:37;;;;;;;10.13;5.50;;;;;;;9.25;100.00;101901.75;10580688;28;20407;-76
2024/02/05 03:05:00;;;;;;;7.97;6.35;;;;;;;9.34;100.00;101898.56;10550893;28;20054;-76
2024/02/05 03:10:23;;;;;;;12.73;7.47;;;;;;;9.37;100.00;101902.25;10566001;28;20044;-76
2024/02/05 03:15:47;;;;;;;11.63;8.43;;;;;;;9.17;100.00;101900.56;10613678;27;20066;-76
2024/02/05 03:21:10;;;;;;;9.35;6.80;;;;;;;9.10;100.00;101915.22;10614644;27;20491;-76
2024/02/05 03:26:33;;;;;;;12.30;5.80;;;;;;;9.24;100.00;101899.97;10643544;27;20050;-75
2024/02/05 03:31:57;;;;;;;10.00;7.13;;;;;;;9.27;100.00;101901.78;10619329;27;20103;-75
2024/02/05 03:37:20;;;;;;;8.38;5.90;;;;;;;9.11;100.00;101901.22;10631871;27;20040;-75
2024/02/05 03:42:42;;;;;;;7.13;5.20;;;;;;;9.17;100.00;101904.09;10597688;27;20039;-75
2024/02/05 03:48:10;;;;;;;9.15;6.15;;;;;;;9.13;100.00;101910.06;10618728;27;20049;-75
2024/02/05 03:53:32;;;;;;;12.55;6.15;;;;;;;9.22;100.00;101916.53;10637241;27;20092;-75
2024/02/05 03:58:55;;;;;;;7.68;3.90;;;;;;;9.52;100.00;101918.63;10617248;27;20066;-75
2024/02/05 04:04:21;;;;;;;11.80;7.63;;;;;;;9.66;100.00;101924.41;10609990;27;20115;-75
2024/02/05 04:09:43;;;;;;;9.82;6.15;;;;;;;9.42;100.00;101928.75;10608513;27;20077;-75
2024/02/05 04:15:07;;;;;;;9.90;6.32;;;;;;;9.50;100.00;101928.22;10589373;27;20503;-76
2024/02/05 04:20:31;;;;;;;6.78;5.25;;;;;;;9.62;100.00;101926.88;10584927;27;20506;-76
2024/02/05 04:25:54;;;;;;;16.25;14.70;;;;;;;9.59;100.00;101932.94;10581224;27;20502;-75
2024/02/05 04:31:17;;;;;;;26.80;24.33;;;;;;;9.43;100.00;101955.19;10593567;27;20047;-75
2024/02/05 04:36:42;;;;;;;5.43;4.60;;;;;;;9.54;100.00;101955.59;10541986;27;20569;-75
2024/02/05 04:42:05;;;;;;;8.43;6.00;;;;;;;9.66;100.00;101955.16;10547424;27;20085;-75
2024/02/05 04:47:27;;;;;;;12.65;11.20;;;;;;;9.48;100.00;101953.63;10567002;27;20554;-75
2024/02/05 04:52:51;;;;;;;8.90;7.60;;;;;;;9.36;100.00;101960.13;10580756;27;20129;-75
2024/02/05 04:58:14;;;;;;;7.13;4.70;;;;;;;9.35;100.00;101968.88;10569904;27;20051;-75
2024/02/05 05:03:37;;;;;;;7.38;5.22;;;;;;;9.18;100.00;101968.22;10571579;27;20415;-75
2024/02/05 05:09:01;;;;;;;8.07;4.95;;;;;;;9.00;100.00;101967.44;10579902;27;20103;-76
2024/02/05 05:14:24;;;;;;;7.70;5.90;;;;;;;9.04;100.00;101970.28;10620171;27;20058;-76
2024/02/05 05:19:46;;;;;;;7.10;4.78;;;;;;;8.97;100.00;101975.22;10614546;27;20050;-76
2024/02/05 05:25:11;;;;;;;7.05;4.40;;;;;;;9.27;100.00;101971.19;10600882;27;20054;-75
2024/02/05 05:30:37;;;;;;;6.88;5.40;;;;;;;9.60;100.00;101980.44;10612046;27;20087;-76
2024/02/05 05:35:59;;;;;;;10.38;7.28;;;;;;;9.73;100.00;101971.28;10592467;27;20574;-75
2024/02/05 05:41:23;;;;;;;7.97;5.80;;;;;;;9.67;100.00;101976.31;10592744;27;20054;-75
2024/02/05 05:46:46;;;;;;;9.82;6.68;;;;;;;9.65;100.00;101975.34;10582636;27;20138;-76
2024/02/05 05:52:09;;;;;;;7.78;5.90;;;;;;;9.64;100.00;101983.22;10613398;27;20901;-75
2024/02/05 05:57:33;;;;;;;7.47;5.40;;;;;;;9.80;100.00;101977.69;10579012;27;20047;-76
2024/02/05 06:02:56;;;;;;;4.13;3.42;;;;;;;12.47;100.00;101962.75;10582305;27;20043;-75
2024/02/05 06:08:19;;;;;;;19.20;5.65;;;;;;;15.72;99.43;101968.69;10613393;27;20053;-75
2024/02/05 06:13:43;;;;;;;9.75;6.05;;;;;;;17.48;77.92;101970.56;10589222;27;20047;-76
2024/02/05 06:19:05;;;;;;;14.27;8.15;;;;;;;18.17;68.39;101975.44;10568396;27;20055;-75
2024/02/05 06:24:37;;;;;;;18.80;9.18;;;;;;;18.69;64.27;101986.31;10577322;27;20138;-75
2024/02/05 06:30:13;;;;;;;29.88;16.88;;;;;;;19.81;56.73;101983.63;10583135;27;20068;-76
2024/02/05 06:35:36;;;;;;;19.45;12.77;;;;;;;21.57;50.88;101989.69;10575912;27;20499;-78
2024/02/05 06:40:58;;;;;;;13.48;9.43;;;;;;;23.01;45.72;101986.97;10556059;27;20560;-77
2024/02/05 06:46:23;;;;;;;87.38;46.53;;;;;;;22.87;45.40;101984.50;10575449;28;20108;-77
2024/02/05 06:51:46;;;;;;;81.30;47.92;;;;;;;23.39;42.64;101986.31;10572978;28;20043;-78
2024/02/05 06:57:08;;;;;;;157.10;80.88;;;;;;;23.53;42.99;101989.69;10574848;28;20047;-77
2024/02/05 07:02:32;;;;;;;41.70;22.90;;;;;;;24.51;41.00;101994.91;10573784;28;20047;-78
2024/02/05 07:07:55;;;;;;;31.65;19.23;;;;;;;25.39;39.10;102002.72;10571638;28;20140;-78
2024/02/05 07:13:17;;;;;;;31.50;18.52;;;;;;;26.46;37.34;102006.06;10575362;28;20054;-78
2024/02/05 07:18:42;;;;;;;7.82;5.78;;;;;;;27.90;34.30;102005.78;10587232;28;20055;-77
2024/02/05 07:24:05;;;;;;;9.73;6.85;;;;;;;27.61;32.95;101993.28;10564579;28;20052;-78
2024/02/05 07:29:27;;;;;;;12.68;8.93;;;;;;;28.23;32.82;101995.53;10563986;28;20058;-78
2024/02/05 07:34:51;;;;;;;12.70;8.85;;;;;;;29.00;30.83;101997.91;10561311;28;20497;-78
2024/02/05 07:40:14;;;;;;;12.60;6.43;;;;;;;29.91;29.23;101991.22;10583728;27;20055;-78
2024/02/05 07:45:37;;;;;;;7.72;6.93;;;;;;;31.11;27.47;101995.56;10588395;27;20048;-78
2024/02/05 07:51:03;;;;;;;8.40;6.00;;;;;;;31.90;26.78;101992.28;10541518;27;20044;-73
2024/02/05 07:56:26;;;;;;;7.20;4.30;;;;;;;32.74;25.74;101995.88;10538210;27;20063;-74
2024/02/05 08:01:49;;;;;;;5.70;5.00;;;;;;;33.36;24.56;101989.44;10515906;27;20048;-74
2024/02/05 08:07:14;;;;;;;4.82;3.83;;;;;;;33.66;23.86;101996.78;10527785;27;20051;-75
2024/02/05 08:12:37;;;;;;;9.05;5.43;;;;;;;33.74;23.53;101992.63;10521939;27;20047;-75
2024/02/05 08:18:00;;;;;;;4.97;2.75;;;;;;;33.41;23.27;101997.41;10587725;27;20043;-75
2024/02/05 08:23:24;;;;;;;9.38;4.65;;;;;;;33.86;22.18;101989.13;10602482;27;20054;-75
2024/02/05 08:28:48;;;;;;;5.30;3.80;;;;;;;33.83;22.17;101986.56;10597298;27;20048;-76
2024/02/05 08:34:12;;;;;;;6.20;3.75;;;;;;;34.90;21.21;101986.06;10599357;27;20137;-76
2024/02/05 08:39:36;;;;;;;5.20;2.85;;;;;;;35.13;20.42;101985.38;10604523;27;20054;-76
2024/02/05 08:44:58;;;;;;;4.38;2.80;;;;;;;35.61;19.91;101987.63;10619262;27;20134;-76
2024/02/05 08:50:24;;;;;;;7.28;4.05;;;;;;;36.44;20.05;101977.97;10589711;27;20039;-76
2024/02/05 08:55:48;;;;;;;5.90;3.70;;;;;;;35.86;21.48;101987.69;10591205;27;20115;-76
2024/02/05 09:01:11;;;;;;;7.13;3.88;;;;;;;35.84;21.90;101978.69;10625079;27;20062;-76
2024/02/05 09:06:33;;;;;;;6.93;3.38;;;;;;;35.95;22.49;101982.44;10648096;27;20047;-76
2024/02/05 09:11:59;;;;;;;3.80;3.00;;;;;;;35.98;21.55;101967.56;10604313;27;20042;-80
2024/02/05 09:17:21;;;;;;;11.48;6.13;;;;;;;36.31;21.57;101978.88;10618920;27;20047;-77
2024/02/05 09:22:47;;;;;;;6.30;3.92;;;;;;;35.66;22.58;101966.19;10599515;27;20043;-76
2024/02/05 09:28:13;;;;;;;5.93;3.05;;;;;;;35.09;23.14;101959.13;10604121;27;20054;-76
2024/02/05 09:33:36;;;;;;;3.28;2.88;;;;;;;35.65;22.29;101958.94;10575207;27;20130;-77
2024/02/05 09:38:58;;;;;;;6.65;4.35;;;;;;;36.19;21.10;101959.66;10604487;27;20051;-76
2024/02/05 09:44:24;;;;;;;5.25;3.20;;;;;;;35.67;22.16;101937.72;10599842;27;20047;-77
2024/02/05 09:49:48;;;;;;;5.35;3.33;;;;;;;35.08;22.64;101929.00;10571746;28;20043;-77
2024/02/05 09:55:11;;;;;;;8.70;5.80;;;;;;;35.71;21.94;101934.66;10585317;27;20057;-77
2024/02/05 10:00:36;;;;;;;8.63;5.68;;;;;;;35.47;22.68;101941.88;10602673;27;20660;-77
2024/02/05 10:06:03;;;;;;;6.85;5.63;;;;;;;34.75;23.80;101930.31;10602799;27;20553;-77
2024/02/05 10:11:28;;;;;;;3.78;3.10;;;;;;;33.14;25.53;101924.13;10602309;27;20122;-77
2024/02/05 10:16:52;;;;;;;8.70;5.03;;;;;;;33.21;25.65;101928.28;10558816;28;20105;-77
2024/02/05 10:22:15;;;;;;;10.88;4.88;;;;;;;34.07;24.87;101915.59;10572470;28;20055;-77
2024/02/05 10:27:37;;;;;;;6.53;3.90;;;;;;;33.63;25.50;101915.66;10556502;28;20061;-77
2024/02/05 10:33:03;;;;;;;7.88;4.10;;;;;;;33.83;24.45;101909.84;10553770;28;20487;-78
2024/02/05 10:38:27;;;;;;;5.72;3.22;;;;;;;34.49;23.16;101898.22;10565924;28;20215;-77
2024/02/05 10:43:49;;;;;;;3.47;1.92;;;;;;;34.11;20.73;101886.13;10562816;28;20058;-75
2024/02/05 10:49:13;;;;;;;8.05;3.00;;;;;;;33.69;22.54;101879.66;10531480;28;20063;-76
2024/02/05 10:54:38;;;;;;;2.83;2.10;;;;;;;33.40;20.55;101873.28;10532963;28;20082;-75
2024/02/05 11:00:01;;;;;;;3.00;2.10;;;;;;;33.62;20.71;101870.94;10520636;28;20051;-78
2024/02/05 11:05:26;;;;;;;5.32;3.30;;;;;;;33.84;20.60;101869.59;10520297;28;20047;-78
2024/02/05 11:10:51;;;;;;;5.57;4.10;;;;;;;33.30;20.96;101877.56;10564972;28;20055;-77
2024/02/05 11:16:16;;;;;;;4.93;3.45;;;;;;;33.22;21.79;101864.31;10569367;27;20061;-79
2024/02/05 11:21:47;;;;;;;4.18;2.92;;;;;;;33.00;21.44;101861.13;10574156;27;20063;-79
2024/02/05 11:27:11;;;;;;;4.93;2.60;;;;;;;31.22;24.51;101851.22;10561743;28;20047;-76
2024/02/05 11:32:34;;;;;;;5.28;2.20;;;;;;;29.79;28.32;101849.28;10548716;28;20055;-76
2024/02/05 11:38:06;;;;;;;5.65;2.92;;;;;;;29.64;29.04;101853.63;10561515;28;20056;-76
2024/02/05 11:43:29;;;;;;;4.47;2.42;;;;;;;29.19;30.37;101860.16;10516741;28;20048;-77
2024/02/05 11:48:52;;;;;;;5.88;2.60;;;;;;;27.52;32.48;101849.78;10565180;28;20055;-77
2024/02/05 11:54:18;;;;;;;5.68;2.90;;;;;;;25.66;35.71;101844.25;10561031;28;20048;-77
2024/02/05 11:59:43;;;;;;;6.53;2.50;;;;;;;24.95;37.86;101845.28;10533788;28;20047;-77
2024/02/05 12:05:07;;;;;;;5.45;1.90;;;;;;;24.27;37.88;101841.59;10551572;28;20043;-77
2024/02/05 12:10:32;;;;;;;4.70;2.67;;;;;;;23.84;41.61;101837.13;10526527;28;20484;-76
2024/02/05 12:22:41;;;;;;;7.10;3.00;;;;;;;23.21;43.28;101830.34;10336071;28;20184;-76
2024/02/05 12:28:57;;;;;;;5.40;2.75;;;;;;;22.98;45.26;101817.31;10373929;28;20497;-77
2024/02/05 12:34:21;;;;;;;8.00;3.67;;;;;;;22.55;46.61;101828.81;10317475;28;20433;-75
2024/02/05 12:39:47;;;;;;;7.78;3.55;;;;;;;22.34;48.23;101822.88;10307569;28;20054;-76
2024/02/05 12:45:11;;;;;;;5.07;2.85;;;;;;;22.17;51.85;101832.13;10319195;28;20058;-76
2024/02/05 12:50:37;;;;;;;4.70;2.60;;;;;;;21.93;54.77;101835.13;10321772;28;20395;-75
2024/02/05 12:56:00;;;;;;;4.10;2.50;;;;;;;21.81;57.71;101835.28;10358850;28;20057;-77
2024/02/05 13:01:23;;;;;;;6.85;3.05;;;;;;;21.63;61.43;101833.75;10430131;28;20152;-77
2024/02/05 13:06:47;;;;;;;6.70;3.10;;;;;;;21.72;62.71;101827.38;10493289;28;20039;-78
2024/02/05 13:12:12;;;;;;;7.72;3.38;;;;;;;21.82;62.23;101832.59;10540650;27;20069;-78
2024/02/05 13:17:35;;;;;;;6.63;3.00;;;;;;;21.96;60.67;101839.59;10561578;28;20047;-77
2024/02/05 13:22:59;;;;;;;6.50;3.55;;;;;;;21.96;59.53;101836.91;10539288;28;20059;-77
2024/02/05 13:28:24;;;;;;;4.95;2.75;;;;;;;21.75;58.91;101835.38;10566107;28;20134;-77
2024/02/05 13:33:47;;;;;;;5.90;3.20;;;;;;;21.46;59.54;101841.13;10563405;28;20039;-76
2024/02/05 13:39:12;;;;;;;8.50;3.40;;;;;;;21.19;61.34;101836.06;10549574;28;20067;-76
2024/02/05 13:44:34;;;;;;;9.38;6.32;;;;;;;20.94;64.18;101844.31;10545634;28;20570;-76
2024/02/05 13:50:00;;;;;;;7.95;4.10;;;;;;;20.86;68.62;101850.69;10536946;28;20054;-75
2024/02/05 13:55:24;;;;;;;8.88;5.82;;;;;;;20.66;71.85;101849.06;10547508;28;20039;-77
2024/02/05 14:00:47;;;;;;;11.65;7.35;;;;;;;20.55;74.57;101853.63;10528385;28;20043;-75
2024/02/05 14:06:10;;;;;;;13.77;9.40;;;;;;;20.37;77.18;101850.19;10558759;28;20040;-77
2024/02/05 14:11:33;;;;;;;18.13;11.75;;;;;;;20.27;78.83;101858.28;10521266;28;20096;-75
2024/02/05 14:16:56;;;;;;;14.85;8.57;;;;;;;20.03;80.61;101862.88;10599895;27;20051;-75
2024/02/05 14:22:19;;;;;;;6.07;4.10;;;;;;;19.94;80.44;101858.47;10615332;27;20053;-75
2024/02/05 14:27:43;;;;;;;11.30;5.40;;;;;;;19.85;77.89;101856.72;10586318;27;20046;-75
2024/02/05 14:33:06;;;;;;;6.88;3.63;;;;;;;19.72;75.78;101863.06;10599380;27;20043;-74
2024/02/05 14:38:28;;;;;;;7.78;3.72;;;;;;;19.52;78.09;101859.56;10584685;27;20135;-76
2024/02/05 14:43:53;;;;;;;10.57;3.85;;;;;;;19.43;78.74;101855.06;10599110;27;20069;-75
2024/02/05 14:49:16;;;;;;;10.13;3.97;;;;;;;19.36;79.28;101852.44;10600223;27;20075;-76
2024/02/05 14:54:39;;;;;;;7.00;2.80;;;;;;;19.24;84.48;101858.69;10599410;27;20065;-75
2024/02/05 15:00:05;;;;;;;10.63;2.95;;;;;;;19.13;92.39;101854.28;10578164;28;20055;-76
2024/02/05 15:05:28;;;;;;;15.90;9.73;;;;;;;18.96;96.68;101855.22;10591041;27;20070;-75
2024/02/05 15:10:51;;;;;;;24.38;10.75;;;;;;;18.77;100.00;101866.81;10568964;28;20053;-75
2024/02/05 15:16:15;;;;;;;22.42;13.07;;;;;;;18.50;100.00;101881.03;10601038;27;20049;-76
2024/02/05 15:21:38;;;;;;;17.45;10.63;;;;;;;18.37;100.00;101881.91;10579863;28;20047;-76
2024/02/05 15:27:01;;;;;;;17.52;9.68;;;;;;;18.21;100.00;101877.41;10596259;28;20057;-74
2024/02/05 15:32:25;;;;;;;13.77;7.05;;;;;;;17.89;100.00;101880.00;10583923;28;20035;-75
2024/02/05 15:37:48;;;;;;;13.38;7.68;;;;;;;17.71;100.00;101899.53;10579075;28;20051;-75
2024/02/05 15:43:11;;;;;;;17.00;7.00;;;;;;;17.38;100.00;101900.22;10575597;28;20042;-76
2024/02/05 15:48:35;;;;;;;10.77;5.30;;;;;;;17.17;100.00;101909.84;10564669;28;20134;-76
2024/02/05 15:53:57;;;;;;;12.02;5.28;;;;;;;16.94;100.00;101912.31;10593749;28;20040;-75
2024/02/05 15:59:20;;;;;;;11.15;6.80;;;;;;;16.71;100.00;101929.03;10584510;28;20403;-76
2024/02/05 16:04:44;;;;;;;22.38;11.23;;;;;;;16.48;100.00;101927.88;10609253;27;20064;-76
2024/02/05 16:10:08;;;;;;;60.95;50.10;;;;;;;16.12;100.00;101932.81;10608307;27;20107;-76
2024/02/05 16:15:30;;;;;;;55.55;44.03;;;;;;;16.08;100.00;101939.00;10580791;27;20055;-76
2024/02/05 16:20:54;;;;;;;73.15;59.85;;;;;;;16.12;100.00;101952.38;10601344;27;20035;-74
2024/02/05 16:26:17;;;;;;;43.88;31.77;;;;;;;16.05;100.00;101936.28;10603115;27;20123;-76
2024/02/05 16:31:40;;;;;;;41.13;29.77;;;;;;;15.89;100.00;101946.75;10591656;27;20063;-75
2024/02/05 16:37:04;;;;;;;57.08;41.17;;;;;;;15.79;100.00;101943.94;10557224;27;20055;-75
2024/02/05 16:42:26;;;;;;;33.13;24.35;;;;;;;15.43;100.00;101939.84;10616289;27;20184;-76
2024/02/05 16:47:49;;;;;;;33.53;26.92;;;;;;;15.22;100.00;101939.56;10571581;27;21145;-74
2024/02/05 16:53:13;;;;;;;34.75;28.27;;;;;;;15.10;100.00;101942.00;10573345;27;20049;-76
2024/02/05 16:58:36;;;;;;;28.38;25.38;;;;;;;14.88;100.00;101946.09;10590865;27;20055;-76
2024/02/05 17:03:58;;;;;;;21.58;15.95;;;;;;;14.85;100.00;101939.81;10602069;27;20047;-75
2024/02/05 17:09:22;;;;;;;21.45;12.00;;;;;;;14.72;100.00;101949.34;10590889;27;20053;-77
2024/02/05 17:14:45;;;;;;;12.95;9.75;;;;;;;14.44;100.00;101939.09;10599171;27;20047;-75
2024/02/05 17:20:08;;;;;;;18.90;10.77;;;;;;;14.48;100.00;101941.81;10602157;27;20058;-75
2024/02/05 17:25:33;;;;;;;30.30;21.65;;;;;;;14.36;100.00;101945.13;10595779;27;20073;-75
2024/02/05 17:30:55;;;;;;;26.40;19.23;;;;;;;14.12;100.00;101952.59;10570493;27;20058;-75
2024/02/05 17:36:18;;;;;;;27.95;20.73;;;;;;;13.85;100.00;101955.56;10602240;27;20071;-74
2024/02/05 17:41:42;;;;;;;54.33;44.90;;;;;;;13.87;100.00;101959.16;10602005;27;20550;-75
2024/02/05 17:47:07;;;;;;;23.95;19.48;;;;;;;13.98;100.00;101945.22;10597152;27;20039;-74
2024/02/05 17:52:29;;;;;;;20.25;16.73;;;;;;;14.00;100.00;101948.78;10580243;27;20047;-76
2024/02/05 17:57:54;;;;;;;15.38;10.65;;;;;;;13.83;100.00;101952.00;10607500;27;20118;-75
2024/02/05 18:03:16;;;;;;;51.30;40.70;;;;;;;13.64;100.00;101952.47;10583256;27;20047;-74
2024/02/05 18:08:39;;;;;;;14.80;9.55;;;;;;;13.39;100.00;101953.63;10592177;27;20062;-76
2024/02/05 18:14:03;;;;;;;32.75;26.15;;;;;;;13.28;100.00;101962.22;10584865;27;20385;-76
2024/02/05 18:19:26;;;;;;;19.92;15.93;;;;;;;13.22;100.00;101962.97;10605153;27;20871;-74
2024/02/05 18:24:50;;;;;;;17.60;13.77;;;;;;;13.34;100.00;101957.94;10581893;27;20077;-75
2024/02/05 18:30:15;;;;;;;40.15;29.08;;;;;;;13.36;100.00;101961.53;10595988;27;20054;-77
2024/02/05 18:35:41;;;;;;;21.25;15.93;;;;;;;13.26;100.00;101959.50;10625665;27;20042;-76
2024/02/05 18:41:04;;;;;;;15.10;11.05;;;;;;;13.34;100.00;101957.94;10588346;27;20130;-75
2024/02/05 18:46:29;;;;;;;39.22;28.75;;;;;;;13.37;100.00;101958.03;10598026;27;20043;-74
2024/02/05 18:51:51;;;;;;;18.85;13.63;;;;;;;13.08;100.00;101969.66;10595972;27;20042;-77
2024/02/05 18:57:15;;;;;;;88.47;49.13;;;;;;;13.00;100.00;101974.75;10598430;28;20483;-76
2024/02/05 19:02:39;;;;;;;36.58;25.15;;;;;;;12.89;100.00;101978.00;10559823;27;20055;-77
2024/02/05 19:08:03;;;;;;;19.42;13.90;;;;;;;12.76;100.00;101982.97;10562116;28;20069;-76
2024/02/05 19:13:30;;;;;;;28.10;20.02;;;;;;;12.66;100.00;101986.25;10614506;27;20051;-75
2024/02/05 19:18:54;;;;;;;24.80;19.02;;;;;;;12.40;100.00;101994.34;10599006;27;20063;-76
2024/02/05 19:24:16;;;;;;;22.92;17.30;;;;;;;12.13;100.00;102013.88;10625737;27;20050;-76
2024/02/05 19:29:39;;;;;;;46.00;29.33;;;;;;;12.19;100.00;102015.81;10552180;28;20043;-75
2024/02/05 19:35:04;;;;;;;33.70;24.20;;;;;;;12.27;100.00;102017.81;10627115;27;20494;-76
2024/02/05 19:40:28;;;;;;;26.08;22.13;;;;;;;12.04;100.00;102018.00;10553170;28;20048;-78
2024/02/05 19:45:54;;;;;;;53.33;41.55;;;;;;;11.98;100.00;102024.91;10618058;27;20049;-77
2024/02/05 19:51:18;;;;;;;13.35;9.27;;;;;;;12.31;100.00;102009.13;10574265;27;20502;-78
2024/02/05 19:56:44;;;;;;;25.00;17.88;;;;;;;12.26;100.00;102017.78;10602594;27;20046;-77
2024/02/05 20:02:07;;;;;;;19.48;14.93;;;;;;;11.89;100.00;102024.63;10597723;27;20131;-78
2024/02/05 20:07:31;;;;;;;16.75;12.75;;;;;;;11.89;100.00;102023.72;10624122;27;20472;-75
2024/02/05 20:12:54;;;;;;;18.00;12.82;;;;;;;11.87;100.00;102023.69;10599154;27;20050;-76
2024/02/05 20:18:16;;;;;;;19.80;15.60;;;;;;;11.78;100.00;102027.78;10531629;27;20047;-76
2024/02/05 20:23:41;;;;;;;14.98;13.45;;;;;;;11.43;100.00;102010.75;10592323;27;20054;-75
2024/02/05 20:29:04;;;;;;;5.55;4.43;;;;;;;11.60;100.00;102004.28;10583254;27;20138;-76
2024/02/05 20:34:27;;;;;;;11.35;8.63;;;;;;;11.38;100.00;102009.72;10574925;27;20043;-75
2024/02/05 20:39:51;;;;;;;55.97;36.22;;;;;;;11.52;100.00;102011.97;10587363;27;20048;-75
2024/02/05 20:45:15;;;;;;;33.22;22.05;;;;;;;11.37;100.00;102011.47;10590501;27;20039;-76
2024/02/05 20:50:38;;;;;;;28.85;17.42;;;;;;;11.18;100.00;102003.78;10567391;27;20394;-75
2024/02/05 20:56:02;;;;;;;29.13;19.55;;;;;;;11.08;100.00;102009.63;10591041;27;20043;-75
2024/02/05 21:01:24;;;;;;;33.67;23.48;;;;;;;11.05;100.00;102012.16;10592779;27;20043;-76
2024/02/05 21:06:48;;;;;;;32.25;22.40;;;;;;;10.98;100.00;102003.13;10566629;27;20050;-76
2024/02/05 21:12:12;;;;;;;13.18;8.98;;;;;;;10.82;100.00;102013.13;10593040;27;20075;-76
2024/02/05 21:17:34;;;;;;;19.35;13.02;;;;;;;10.74;100.00;102012.88;10594608;27;20050;-75
2024/02/05 21:22:57;;;;;;;33.03;25.92;;;;;;;10.87;100.00;102000.97;10588695;27;20142;-76
2024/02/05 21:28:21;;;;;;;38.15;34.10;;;;;;;10.81;100.00;101993.75;10562637;27;20053;-76
2024/02/05 21:33:45;;;;;;;34.90;31.23;;;;;;;11.03;100.00;101998.88;10574217;28;20481;-76
2024/02/05 21:39:08;;;;;;;48.22;38.90;;;;;;;11.16;100.00;102006.38;10559864;28;20048;-77
2024/02/05 21:44:32;;;;;;;42.58;30.35;;;;;;;11.03;100.00;102005.91;10575944;28;20043;-76
2024/02/05 21:49:55;;;;;;;29.08;21.63;;;;;;;10.94;100.00;102003.88;10571649;28;20040;-76
2024/02/05 21:55:18;;;;;;;19.60;17.25;;;;;;;11.16;100.00;102005.47;10568273;27;20043;-77
2024/02/05 22:00:42;;;;;;;22.33;19.50;;;;;;;11.14;100.00;101997.53;10592074;27;20066;-76
2024/02/05 22:06:05;;;;;;;20.55;17.25;;;;;;;11.14;100.00;102008.09;10597808;27;20123;-75
2024/02/05 22:11:28;;;;;;;7.30;5.80;;;;;;;11.21;100.00;102003.91;10581117;27;20139;-77
2024/02/05 22:16:52;;;;;;;20.50;17.77;;;;;;;11.22;100.00;101988.94;10606173;27;20051;-77
2024/02/05 22:22:15;;;;;;;41.90;34.03;;;;;;;10.97;100.00;101993.41;10591803;27;20088;-75
2024/02/05 22:27:38;;;;;;;18.23;16.42;;;;;;;10.94;100.00;101985.38;10594416;27;20084;-76
2024/02/05 22:33:02;;;;;;;10.48;8.88;;;;;;;10.99;100.00;101986.44;10602965;27;20039;-76
2024/02/05 22:38:24;;;;;;;10.60;8.20;;;;;;;11.28;100.00;101981.22;10597487;27;20047;-76
2024/02/05 22:43:47;;;;;;;16.52;14.75;;;;;;;11.09;100.00;101977.09;10595609;27;20051;-77
2024/02/05 22:49:12;;;;;;;10.02;8.68;;;;;;;10.98;100.00;101974.06;10591986;27;20132;-77
2024/02/05 22:54:35;;;;;;;11.80;7.47;;;;;;;11.40;100.00;101966.66;10578017;27;20066;-76
2024/02/05 22:59:58;;;;;;;9.07;5.68;;;;;;;11.33;100.00;101971.69;10601397;28;20050;-76
2024/02/05 23:05:22;;;;;;;5.72;4.57;;;;;;;11.33;100.00;101966.41;10594858;28;20624;-75
2024/02/05 23:10:45;;;;;;;9.20;6.85;;;;;;;11.23;100.00;101964.28;10613954;27;20043;-76
2024/02/05 23:16:08;;;;;;;6.45;4.32;;;;;;;11.13;100.00;101968.41;10574558;28;20125;-76
2024/02/05 23:21:34;;;;;;;4.88;4.38;;;;;;;11.00;100.00;101961.81;10568374;28;20139;-76
2024/02/05 23:26:57;;;;;;;5.97;4.93;;;;;;;10.94;100.00;101958.06;10532046;28;20051;-76
2024/02/05 23:32:22;;;;;;;3.40;3.10;;;;;;;10.84;100.00;101955.94;10578985;28;20089;-76
2024/02/05 23:37:46;;;;;;;2.97;2.40;;;;;;;10.74;100.00;101947.72;10578141;28;20044;-76
2024/02/05 23:43:09;;;;;;;4.65;4.22;;;;;;;10.85;100.00;101945.44;10563208;28;20040;-76
2024/02/05 23:48:32;;;;;;;6.22;4.97;;;;;;;10.83;100.00;101949.75;10579745;28;20047;-76
2024/02/05 23:53:56;;;;;;;20.70;14.40;;;;;;;11.02;100.00;101946.03;10549976;28;20051;-76
2024/02/05 23:59:19;;;;;;;13.45;9.75;;;;;;;11.04;100.00;101934.63;10579693;28;20153;-76
